Pagrindinis puslapis
METAR-TAF:

METAR-TAF

Oro uostai :

Olborgas, Danija

platuma: 57-06N, ilguma: 009-51E, Aukštis: 3 m

Dabartinis oras

Ataskaita buvo paskelbta 13 minutes, ne 05:25 UTC
Vėjas 6 kt iš Pietvakarių
Temperatūra 15°C
Drėgmė 100%
Slėgis 1026 hPa
Matomumas: 0350 m
rūkas

METAR: EKYT 110525Z 22006KT 0350 R08/P1500D R26/0550U FG VV001 15/15 Q1026

Laikas: 07:38 (05:38 UTC)

Prognozė

Ataskaita buvo paskelbta 2 valandos ir 37 minutes, ne 03:01 UTC
Prognozė galioja nuo 11 metu 03 UTC su 12 metu 03 UTC
Vėjas 4 kt iš Pietvakarių
Matomumas 10 km arba daugiau
Mažai debesys ne aukštis 4000 ft
Laikinai
nuo 11 metu 03 UTC su 11 metu 05 UTC
Matomumas: 0400 m
Rūkas lopais
Tapsmas
nuo 11 metu 14 UTC su 11 metu 16 UTC
Vėjas 8 kt iš Šiaurės Vakarų

TAF: EKYT 110301Z 1103/1203 23004KT 9999 FEW040 TEMPO 1103/1105 0400 BCFG BECMG 1114/1116 31008KT

Orai ataskaitas ir orų prognozės (METAR, TAF).

turimą stotys yra geltonos ir raudonos taškus žemėlapyje.

Perkelti pele per norėdami pamatyti stoties vardą.

Tada spustelėkite, norėdami matyti oro stebėjimo ir prognozės.

Norėdami pakeisti žemėlapį: spustelėkite ant žalios mygtukų su juodo kryžiaus žemyn,; žalią mygtuką su brūkšneliu, jei norite nutolinti; arba žalių rodyklių gretimoms žemėlapius.


METAR-TAF: